sensor_id;sensor_type;location;lat;lon;timestamp;P1;durP1;ratioP1;P2;durP2;ratioP2
50231;SDS011;36118;56.468;84.952;2023-02-07T00:00:16;41.30;;;16.92;;
50231;SDS011;36118;56.468;84.952;2023-02-07T00:05:20;41.28;;;13.88;;
50231;SDS011;36118;56.468;84.952;2023-02-07T00:10:22;31.33;;;12.00;;
50231;SDS011;36118;56.468;84.952;2023-02-07T00:15:25;34.90;;;13.80;;
50231;SDS011;36118;56.468;84.952;2023-02-07T00:20:29;49.25;;;17.15;;
50231;SDS011;36118;56.468;84.952;2023-02-07T00:25:31;47.13;;;17.40;;
50231;SDS011;36118;56.468;84.952;2023-02-07T00:30:34;43.07;;;15.43;;
50231;SDS011;36118;56.468;84.952;2023-02-07T00:35:37;57.65;;;22.13;;
50231;SDS011;36118;56.468;84.952;2023-02-07T00:40:40;39.67;;;16.10;;
50231;SDS011;36118;56.468;84.952;2023-02-07T00:45:43;51.23;;;17.43;;
50231;SDS011;36118;56.468;84.952;2023-02-07T00:50:46;51.13;;;17.07;;
50231;SDS011;36118;56.468;84.952;2023-02-07T01:00:52;69.80;;;20.80;;
50231;SDS011;36118;56.468;84.952;2023-02-07T01:05:55;61.70;;;21.37;;
50231;SDS011;36118;56.468;84.952;2023-02-07T01:11:04;68.63;;;24.73;;
50231;SDS011;36118;56.468;84.952;2023-02-07T01:16:21;73.05;;;24.75;;
50231;SDS011;36118;56.468;84.952;2023-02-07T01:21:26;64.00;;;21.17;;
50231;SDS011;36118;56.468;84.952;2023-02-07T01:26:30;71.50;;;25.30;;
50231;SDS011;36118;56.468;84.952;2023-02-07T01:31:32;61.33;;;20.40;;
50231;SDS011;36118;56.468;84.952;2023-02-07T01:36:35;74.93;;;27.93;;
50231;SDS011;36118;56.468;84.952;2023-02-07T01:41:38;98.95;;;36.38;;
50231;SDS011;36118;56.468;84.952;2023-02-07T01:46:41;97.13;;;34.00;;
50231;SDS011;36118;56.468;84.952;2023-02-07T01:51:46;104.83;;;41.07;;
50231;SDS011;36118;56.468;84.952;2023-02-07T01:56:53;113.15;;;40.58;;
50231;SDS011;36118;56.468;84.952;2023-02-07T02:01:58;95.43;;;33.08;;
50231;SDS011;36118;56.468;84.952;2023-02-07T02:07:02;102.70;;;35.28;;
50231;SDS011;36118;56.468;84.952;2023-02-07T02:17:29;102.15;;;33.78;;
50231;SDS011;36118;56.468;84.952;2023-02-07T02:28:10;125.35;;;43.90;;
50231;SDS011;36118;56.468;84.952;2023-02-07T02:33:32;117.03;;;46.85;;
50231;SDS011;36118;56.468;84.952;2023-02-07T02:38:46;124.18;;;44.35;;
50231;SDS011;36118;56.468;84.952;2023-02-07T02:44:05;115.72;;;40.53;;
50231;SDS011;36118;56.468;84.952;2023-02-07T02:49:12;125.97;;;47.88;;
50231;SDS011;36118;56.468;84.952;2023-02-07T02:54:25;139.10;;;50.10;;
50231;SDS011;36118;56.468;84.952;2023-02-07T03:04:55;119.38;;;45.60;;
50231;SDS011;36118;56.468;84.952;2023-02-07T03:15:55;120.95;;;42.75;;
50231;SDS011;36118;56.468;84.952;2023-02-07T03:26:23;141.43;;;56.42;;
50231;SDS011;36118;56.468;84.952;2023-02-07T03:31:28;140.70;;;56.25;;
50231;SDS011;36118;56.468;84.952;2023-02-07T03:36:43;115.63;;;42.58;;
50231;SDS011;36118;56.468;84.952;2023-02-07T03:41:52;130.80;;;49.88;;
50231;SDS011;36118;56.468;84.952;2023-02-07T03:46:58;110.60;;;41.65;;
50231;SDS011;36118;56.468;84.952;2023-02-07T03:52:01;122.90;;;44.50;;
50231;SDS011;36118;56.468;84.952;2023-02-07T03:57:03;120.55;;;44.63;;
50231;SDS011;36118;56.468;84.952;2023-02-07T04:02:06;121.35;;;42.35;;
50231;SDS011;36118;56.468;84.952;2023-02-07T04:07:09;130.98;;;58.60;;
50231;SDS011;36118;56.468;84.952;2023-02-07T04:12:12;135.83;;;56.47;;
50231;SDS011;36118;56.468;84.952;2023-02-07T04:17:15;114.68;;;47.80;;
50231;SDS011;36118;56.468;84.952;2023-02-07T04:22:18;120.30;;;48.22;;
50231;SDS011;36118;56.468;84.952;2023-02-07T04:27:21;123.00;;;52.25;;
50231;SDS011;36118;56.468;84.952;2023-02-07T04:32:23;138.32;;;62.85;;
50231;SDS011;36118;56.468;84.952;2023-02-07T04:37:26;134.95;;;50.15;;
50231;SDS011;36118;56.468;84.952;2023-02-07T04:42:29;104.85;;;40.25;;
50231;SDS011;36118;56.468;84.952;2023-02-07T04:47:32;128.40;;;46.78;;
50231;SDS011;36118;56.468;84.952;2023-02-07T04:52:34;122.28;;;49.00;;
50231;SDS011;36118;56.468;84.952;2023-02-07T04:57:38;138.23;;;55.77;;
50231;SDS011;36118;56.468;84.952;2023-02-07T05:02:40;110.82;;;47.45;;
50231;SDS011;36118;56.468;84.952;2023-02-07T05:07:44;106.00;;;42.45;;
50231;SDS011;36118;56.468;84.952;2023-02-07T05:12:47;128.45;;;51.38;;
50231;SDS011;36118;56.468;84.952;2023-02-07T05:17:53;143.20;;;59.70;;
50231;SDS011;36118;56.468;84.952;2023-02-07T05:28:01;129.50;;;53.75;;
50231;SDS011;36118;56.468;84.952;2023-02-07T05:33:04;140.50;;;60.63;;
50231;SDS011;36118;56.468;84.952;2023-02-07T05:38:08;121.70;;;54.03;;
50231;SDS011;36118;56.468;84.952;2023-02-07T05:43:13;128.38;;;51.60;;
50231;SDS011;36118;56.468;84.952;2023-02-07T05:48:16;131.95;;;58.85;;
50231;SDS011;36118;56.468;84.952;2023-02-07T05:53:19;128.48;;;56.05;;
50231;SDS011;36118;56.468;84.952;2023-02-07T05:58:21;133.88;;;55.72;;
50231;SDS011;36118;56.468;84.952;2023-02-07T06:03:24;142.07;;;60.92;;
50231;SDS011;36118;56.468;84.952;2023-02-07T06:08:28;122.57;;;52.40;;
50231;SDS011;36118;56.468;84.952;2023-02-07T06:13:30;136.20;;;63.72;;
50231;SDS011;36118;56.468;84.952;2023-02-07T06:18:33;125.82;;;53.05;;
50231;SDS011;36118;56.468;84.952;2023-02-07T06:23:36;124.95;;;48.60;;
50231;SDS011;36118;56.468;84.952;2023-02-07T06:28:38;116.78;;;50.42;;
50231;SDS011;36118;56.468;84.952;2023-02-07T06:33:41;125.93;;;51.38;;
50231;SDS011;36118;56.468;84.952;2023-02-07T06:38:44;116.63;;;55.65;;
50231;SDS011;36118;56.468;84.952;2023-02-07T06:43:48;92.93;;;39.60;;
50231;SDS011;36118;56.468;84.952;2023-02-07T06:48:51;109.63;;;41.60;;
50231;SDS011;36118;56.468;84.952;2023-02-07T06:53:54;119.88;;;55.03;;
50231;SDS011;36118;56.468;84.952;2023-02-07T06:58:57;118.40;;;49.70;;
50231;SDS011;36118;56.468;84.952;2023-02-07T07:04:00;119.20;;;50.75;;
50231;SDS011;36118;56.468;84.952;2023-02-07T07:09:02;110.57;;;43.70;;
50231;SDS011;36118;56.468;84.952;2023-02-07T07:14:05;108.45;;;47.13;;
50231;SDS011;36118;56.468;84.952;2023-02-07T07:19:08;127.47;;;56.50;;
50231;SDS011;36118;56.468;84.952;2023-02-07T07:24:11;110.43;;;44.47;;
50231;SDS011;36118;56.468;84.952;2023-02-07T07:29:14;98.10;;;41.42;;
50231;SDS011;36118;56.468;84.952;2023-02-07T07:34:16;112.40;;;48.78;;
50231;SDS011;36118;56.468;84.952;2023-02-07T07:39:19;117.53;;;52.92;;
50231;SDS011;36118;56.468;84.952;2023-02-07T07:44:22;112.07;;;49.92;;
50231;SDS011;36118;56.468;84.952;2023-02-07T07:49:25;100.82;;;43.28;;
50231;SDS011;36118;56.468;84.952;2023-02-07T07:54:28;117.00;;;50.47;;
50231;SDS011;36118;56.468;84.952;2023-02-07T07:59:31;107.30;;;50.90;;
50231;SDS011;36118;56.468;84.952;2023-02-07T08:04:34;105.28;;;47.08;;
50231;SDS011;36118;56.468;84.952;2023-02-07T08:09:37;96.60;;;43.63;;
50231;SDS011;36118;56.468;84.952;2023-02-07T08:14:40;85.97;;;38.38;;
50231;SDS011;36118;56.468;84.952;2023-02-07T08:19:43;97.95;;;45.83;;
50231;SDS011;36118;56.468;84.952;2023-02-07T08:24:46;87.72;;;37.03;;
50231;SDS011;36118;56.468;84.952;2023-02-07T08:29:48;99.05;;;48.08;;
50231;SDS011;36118;56.468;84.952;2023-02-07T08:34:51;99.90;;;46.25;;
50231;SDS011;36118;56.468;84.952;2023-02-07T08:39:54;92.82;;;40.40;;
50231;SDS011;36118;56.468;84.952;2023-02-07T08:44:57;88.95;;;40.33;;
50231;SDS011;36118;56.468;84.952;2023-02-07T08:49:59;91.22;;;43.00;;
50231;SDS011;36118;56.468;84.952;2023-02-07T08:55:04;82.85;;;36.90;;
50231;SDS011;36118;56.468;84.952;2023-02-07T09:00:07;80.43;;;34.95;;
50231;SDS011;36118;56.468;84.952;2023-02-07T09:05:11;77.37;;;34.77;;
50231;SDS011;36118;56.468;84.952;2023-02-07T09:10:13;69.80;;;32.05;;
50231;SDS011;36118;56.468;84.952;2023-02-07T09:15:16;81.43;;;42.00;;
50231;SDS011;36118;56.468;84.952;2023-02-07T09:20:19;76.75;;;38.42;;
50231;SDS011;36118;56.468;84.952;2023-02-07T09:25:22;82.30;;;39.15;;
50231;SDS011;36118;56.468;84.952;2023-02-07T09:30:26;77.43;;;33.40;;
50231;SDS011;36118;56.468;84.952;2023-02-07T09:35:28;69.95;;;28.83;;
50231;SDS011;36118;56.468;84.952;2023-02-07T09:40:32;74.25;;;34.33;;
50231;SDS011;36118;56.468;84.952;2023-02-07T09:45:36;82.13;;;40.47;;
50231;SDS011;36118;56.468;84.952;2023-02-07T09:50:44;74.63;;;31.88;;
50231;SDS011;36118;56.468;84.952;2023-02-07T09:55:56;90.57;;;52.38;;
50231;SDS011;36118;56.468;84.952;2023-02-07T10:01:07;71.68;;;32.92;;
50231;SDS011;36118;56.468;84.952;2023-02-07T10:06:16;72.55;;;34.20;;
50231;SDS011;36118;56.468;84.952;2023-02-07T10:27:53;69.40;;;31.83;;
50231;SDS011;36118;56.468;84.952;2023-02-07T10:33:18;74.38;;;33.08;;
50231;SDS011;36118;56.468;84.952;2023-02-07T10:38:34;75.75;;;31.98;;
50231;SDS011;36118;56.468;84.952;2023-02-07T10:43:41;75.82;;;36.28;;
50231;SDS011;36118;56.468;84.952;2023-02-07T10:48:45;77.40;;;35.55;;
50231;SDS011;36118;56.468;84.952;2023-02-07T10:53:50;65.38;;;29.17;;
50231;SDS011;36118;56.468;84.952;2023-02-07T10:59:03;69.65;;;31.85;;
50231;SDS011;36118;56.468;84.952;2023-02-07T11:04:20;69.28;;;33.13;;
50231;SDS011;36118;56.468;84.952;2023-02-07T11:09:36;77.43;;;31.92;;
50231;SDS011;36118;56.468;84.952;2023-02-07T11:14:39;72.18;;;31.13;;
50231;SDS011;36118;56.468;84.952;2023-02-07T11:19:52;66.43;;;33.30;;
50231;SDS011;36118;56.468;84.952;2023-02-07T11:24:59;71.85;;;33.22;;
50231;SDS011;36118;56.468;84.952;2023-02-07T11:30:08;62.55;;;28.75;;
50231;SDS011;36118;56.468;84.952;2023-02-07T11:35:17;61.92;;;27.60;;
50231;SDS011;36118;56.468;84.952;2023-02-07T11:45:25;64.88;;;30.20;;
50231;SDS011;36118;56.468;84.952;2023-02-07T11:50:30;54.88;;;25.33;;
50231;SDS011;36118;56.468;84.952;2023-02-07T11:55:38;67.47;;;31.48;;
50231;SDS011;36118;56.468;84.952;2023-02-07T12:00:42;66.57;;;30.48;;
50231;SDS011;36118;56.468;84.952;2023-02-07T12:05:46;62.80;;;30.33;;
50231;SDS011;36118;56.468;84.952;2023-02-07T12:10:54;68.40;;;26.55;;
50231;SDS011;36118;56.468;84.952;2023-02-07T12:21:40;54.95;;;24.27;;
50231;SDS011;36118;56.468;84.952;2023-02-07T12:26:57;69.85;;;31.75;;
50231;SDS011;36118;56.468;84.952;2023-02-07T12:32:07;66.88;;;29.73;;
50231;SDS011;36118;56.468;84.952;2023-02-07T12:53:07;66.30;;;28.42;;
50231;SDS011;36118;56.468;84.952;2023-02-07T13:09:14;73.75;;;35.60;;
50231;SDS011;36118;56.468;84.952;2023-02-07T13:20:26;74.43;;;30.92;;
50231;SDS011;36118;56.468;84.952;2023-02-07T13:25:45;72.65;;;30.23;;
50231;SDS011;36118;56.468;84.952;2023-02-07T13:30:49;73.03;;;35.15;;
50231;SDS011;36118;56.468;84.952;2023-02-07T13:35:53;73.87;;;33.33;;
50231;SDS011;36118;56.468;84.952;2023-02-07T13:41:05;66.75;;;27.27;;
50231;SDS011;36118;56.468;84.952;2023-02-07T13:56:57;73.78;;;27.95;;
50231;SDS011;36118;56.468;84.952;2023-02-07T14:02:19;66.65;;;31.13;;
50231;SDS011;36118;56.468;84.952;2023-02-07T14:07:30;67.78;;;26.80;;
50231;SDS011;36118;56.468;84.952;2023-02-07T14:12:37;77.20;;;35.57;;
50231;SDS011;36118;56.468;84.952;2023-02-07T14:43:49;51.33;;;21.35;;
50231;SDS011;36118;56.468;84.952;2023-02-07T14:49:20;61.25;;;24.95;;
50231;SDS011;36118;56.468;84.952;2023-02-07T15:00:14;54.75;;;23.92;;
50231;SDS011;36118;56.468;84.952;2023-02-07T15:05:25;64.80;;;27.88;;
50231;SDS011;36118;56.468;84.952;2023-02-07T15:10:37;70.43;;;30.48;;
50231;SDS011;36118;56.468;84.952;2023-02-07T15:15:49;61.78;;;23.70;;
50231;SDS011;36118;56.468;84.952;2023-02-07T15:20:57;63.70;;;32.28;;
50231;SDS011;36118;56.468;84.952;2023-02-07T15:26:04;60.60;;;28.50;;
50231;SDS011;36118;56.468;84.952;2023-02-07T15:36:31;50.40;;;19.20;;
50231;SDS011;36118;56.468;84.952;2023-02-07T15:41:36;52.72;;;23.63;;
50231;SDS011;36118;56.468;84.952;2023-02-07T15:47:14;53.63;;;22.67;;
50231;SDS011;36118;56.468;84.952;2023-02-07T15:52:31;64.30;;;22.20;;
50231;SDS011;36118;56.468;84.952;2023-02-07T15:57:41;58.20;;;23.55;;
50231;SDS011;36118;56.468;84.952;2023-02-07T16:02:45;51.17;;;21.05;;
50231;SDS011;36118;56.468;84.952;2023-02-07T16:07:58;55.08;;;20.08;;
50231;SDS011;36118;56.468;84.952;2023-02-07T16:23:45;49.63;;;19.08;;
50231;SDS011;36118;56.468;84.952;2023-02-07T16:28:48;48.88;;;19.33;;
50231;SDS011;36118;56.468;84.952;2023-02-07T16:33:51;60.30;;;25.00;;
50231;SDS011;36118;56.468;84.952;2023-02-07T16:38:54;53.00;;;22.08;;
50231;SDS011;36118;56.468;84.952;2023-02-07T16:43:57;44.30;;;16.98;;
50231;SDS011;36118;56.468;84.952;2023-02-07T16:49:01;51.88;;;20.95;;
50231;SDS011;36118;56.468;84.952;2023-02-07T16:54:04;56.53;;;22.83;;
50231;SDS011;36118;56.468;84.952;2023-02-07T16:59:10;51.45;;;19.30;;
50231;SDS011;36118;56.468;84.952;2023-02-07T17:04:14;51.78;;;19.35;;
50231;SDS011;36118;56.468;84.952;2023-02-07T17:09:21;54.35;;;21.83;;
50231;SDS011;36118;56.468;84.952;2023-02-07T17:14:27;52.35;;;20.67;;
50231;SDS011;36118;56.468;84.952;2023-02-07T17:19:30;59.53;;;22.73;;
50231;SDS011;36118;56.468;84.952;2023-02-07T17:24:33;49.42;;;19.45;;
50231;SDS011;36118;56.468;84.952;2023-02-07T17:29:35;29.20;;;11.60;;
50231;SDS011;36118;56.468;84.952;2023-02-07T17:34:38;55.67;;;19.20;;
50231;SDS011;36118;56.468;84.952;2023-02-07T17:39:41;57.08;;;24.63;;
50231;SDS011;36118;56.468;84.952;2023-02-07T17:44:44;52.65;;;19.75;;
50231;SDS011;36118;56.468;84.952;2023-02-07T17:49:47;58.10;;;23.15;;
50231;SDS011;36118;56.468;84.952;2023-02-07T17:54:49;50.47;;;20.27;;
50231;SDS011;36118;56.468;84.952;2023-02-07T17:59:52;45.87;;;19.53;;
50231;SDS011;36118;56.468;84.952;2023-02-07T18:04:55;56.97;;;22.83;;
50231;SDS011;36118;56.468;84.952;2023-02-07T18:15:02;55.00;;;21.30;;
50231;SDS011;36118;56.468;84.952;2023-02-07T18:20:06;54.83;;;22.08;;
50231;SDS011;36118;56.468;84.952;2023-02-07T18:25:12;48.60;;;20.20;;
50231;SDS011;36118;56.468;84.952;2023-02-07T18:30:15;60.78;;;19.45;;
50231;SDS011;36118;56.468;84.952;2023-02-07T18:35:19;47.00;;;17.35;;
50231;SDS011;36118;56.468;84.952;2023-02-07T18:40:22;54.15;;;21.55;;
50231;SDS011;36118;56.468;84.952;2023-02-07T18:45:25;45.93;;;17.33;;
50231;SDS011;36118;56.468;84.952;2023-02-07T18:50:28;45.42;;;17.67;;
50231;SDS011;36118;56.468;84.952;2023-02-07T18:55:31;38.58;;;14.57;;
50231;SDS011;36118;56.468;84.952;2023-02-07T19:00:34;49.90;;;17.83;;
50231;SDS011;36118;56.468;84.952;2023-02-07T19:05:37;46.40;;;19.63;;
50231;SDS011;36118;56.468;84.952;2023-02-07T19:10:39;34.73;;;13.87;;
50231;SDS011;36118;56.468;84.952;2023-02-07T19:15:42;40.03;;;16.38;;
50231;SDS011;36118;56.468;84.952;2023-02-07T19:20:45;43.40;;;17.93;;
50231;SDS011;36118;56.468;84.952;2023-02-07T19:25:48;53.33;;;24.37;;
50231;SDS011;36118;56.468;84.952;2023-02-07T19:30:51;44.47;;;17.90;;
50231;SDS011;36118;56.468;84.952;2023-02-07T19:35:55;44.67;;;18.57;;
50231;SDS011;36118;56.468;84.952;2023-02-07T19:40:58;38.10;;;15.75;;
50231;SDS011;36118;56.468;84.952;2023-02-07T19:46:01;46.90;;;15.73;;
50231;SDS011;36118;56.468;84.952;2023-02-07T19:51:08;42.97;;;15.17;;
50231;SDS011;36118;56.468;84.952;2023-02-07T19:56:13;48.25;;;17.55;;
50231;SDS011;36118;56.468;84.952;2023-02-07T20:01:16;46.13;;;17.67;;
50231;SDS011;36118;56.468;84.952;2023-02-07T20:06:21;40.72;;;14.82;;
50231;SDS011;36118;56.468;84.952;2023-02-07T20:11:26;43.25;;;16.60;;
50231;SDS011;36118;56.468;84.952;2023-02-07T20:16:29;45.63;;;18.13;;
50231;SDS011;36118;56.468;84.952;2023-02-07T20:21:35;45.75;;;17.08;;
50231;SDS011;36118;56.468;84.952;2023-02-07T20:26:39;46.08;;;19.80;;
50231;SDS011;36118;56.468;84.952;2023-02-07T20:31:44;35.95;;;14.35;;
50231;SDS011;36118;56.468;84.952;2023-02-07T20:36:47;48.45;;;22.17;;
50231;SDS011;36118;56.468;84.952;2023-02-07T20:41:50;44.03;;;18.10;;
50231;SDS011;36118;56.468;84.952;2023-02-07T20:46:53;45.00;;;18.60;;
50231;SDS011;36118;56.468;84.952;2023-02-07T20:51:57;39.67;;;17.50;;
50231;SDS011;36118;56.468;84.952;2023-02-07T20:57:00;37.90;;;15.90;;
50231;SDS011;36118;56.468;84.952;2023-02-07T21:02:05;42.42;;;16.20;;
50231;SDS011;36118;56.468;84.952;2023-02-07T21:12:12;35.78;;;12.00;;
50231;SDS011;36118;56.468;84.952;2023-02-07T21:17:15;29.20;;;12.00;;
50231;SDS011;36118;56.468;84.952;2023-02-07T21:22:17;34.03;;;15.30;;
50231;SDS011;36118;56.468;84.952;2023-02-07T21:27:24;36.05;;;14.95;;
50231;SDS011;36118;56.468;84.952;2023-02-07T21:32:26;44.42;;;15.07;;
50231;SDS011;36118;56.468;84.952;2023-02-07T21:37:29;36.50;;;12.85;;
50231;SDS011;36118;56.468;84.952;2023-02-07T21:42:32;29.27;;;8.43;;
50231;SDS011;36118;56.468;84.952;2023-02-07T21:47:34;39.65;;;15.20;;
50231;SDS011;36118;56.468;84.952;2023-02-07T21:52:37;37.17;;;14.27;;
50231;SDS011;36118;56.468;84.952;2023-02-07T21:57:41;47.30;;;16.90;;
50231;SDS011;36118;56.468;84.952;2023-02-07T22:02:43;43.08;;;17.35;;
50231;SDS011;36118;56.468;84.952;2023-02-07T22:07:47;29.38;;;11.02;;
50231;SDS011;36118;56.468;84.952;2023-02-07T22:12:49;40.47;;;14.80;;
50231;SDS011;36118;56.468;84.952;2023-02-07T22:17:52;33.87;;;10.57;;
50231;SDS011;36118;56.468;84.952;2023-02-07T22:22:55;45.93;;;16.37;;
50231;SDS011;36118;56.468;84.952;2023-02-07T22:27:58;36.73;;;14.63;;
50231;SDS011;36118;56.468;84.952;2023-02-07T22:33:01;37.83;;;13.23;;
50231;SDS011;36118;56.468;84.952;2023-02-07T22:38:06;35.17;;;13.43;;
50231;SDS011;36118;56.468;84.952;2023-02-07T22:43:11;36.45;;;12.95;;
50231;SDS011;36118;56.468;84.952;2023-02-07T22:48:15;49.33;;;19.70;;
50231;SDS011;36118;56.468;84.952;2023-02-07T22:53:18;29.20;;;10.57;;
50231;SDS011;36118;56.468;84.952;2023-02-07T22:58:20;43.50;;;17.63;;
50231;SDS011;36118;56.468;84.952;2023-02-07T23:03:23;38.80;;;14.70;;
50231;SDS011;36118;56.468;84.952;2023-02-07T23:08:26;36.47;;;13.70;;
50231;SDS011;36118;56.468;84.952;2023-02-07T23:13:29;40.57;;;14.07;;
50231;SDS011;36118;56.468;84.952;2023-02-07T23:18:32;31.60;;;12.25;;
50231;SDS011;36118;56.468;84.952;2023-02-07T23:23:34;36.63;;;14.27;;
50231;SDS011;36118;56.468;84.952;2023-02-07T23:28:37;31.83;;;12.35;;
50231;SDS011;36118;56.468;84.952;2023-02-07T23:33:41;41.10;;;14.50;;
50231;SDS011;36118;56.468;84.952;2023-02-07T23:38:45;32.63;;;11.95;;
50231;SDS011;36118;56.468;84.952;2023-02-07T23:43:48;27.85;;;9.23;;
50231;SDS011;36118;56.468;84.952;2023-02-07T23:48:52;38.10;;;13.13;;
50231;SDS011;36118;56.468;84.952;2023-02-07T23:53:55;38.95;;;16.08;;
50231;SDS011;36118;56.468;84.952;2023-02-07T23:58:58;31.00;;;12.70;;
